sensor_id;sensor_type;location;lat;lon;timestamp;P1;durP1;ratioP1;P2;durP2;ratioP2
18104;SDS011;9179;50.968;3.134;2022-08-04T08:52:24;17.25;;;15.40;;
18104;SDS011;9179;50.968;3.134;2022-08-04T08:55:11;19.88;;;14.68;;
18104;SDS011;9179;50.968;3.134;2022-08-04T09:00:44;15.25;;;13.65;;
18104;SDS011;9179;50.968;3.134;2022-08-04T09:03:21;10.73;;;9.70;;
18104;SDS011;9179;50.968;3.134;2022-08-04T09:12:05;6.72;;;5.10;;
18104;SDS011;9179;50.968;3.134;2022-08-04T09:14:38;5.72;;;4.60;;
18104;SDS011;9179;50.968;3.134;2022-08-04T09:17:12;4.50;;;4.10;;
18104;SDS011;9179;50.968;3.134;2022-08-04T09:19:49;3.72;;;3.42;;
18104;SDS011;9179;50.968;3.134;2022-08-04T09:22:24;12.02;;;10.18;;
18104;SDS011;9179;50.968;3.134;2022-08-04T09:24:59;8.23;;;7.03;;
18104;SDS011;9179;50.968;3.134;2022-08-04T09:27:33;6.68;;;6.15;;
18104;SDS011;9179;50.968;3.134;2022-08-04T09:30:07;4.00;;;3.60;;
18104;SDS011;9179;50.968;3.134;2022-08-04T09:32:39;4.45;;;3.50;;
18104;SDS011;9179;50.968;3.134;2022-08-04T09:35:14;9.23;;;2.42;;
18104;SDS011;9179;50.968;3.134;2022-08-04T09:37:51;2.20;;;2.10;;
18104;SDS011;9179;50.968;3.134;2022-08-04T09:40:28;2.60;;;2.10;;
18104;SDS011;9179;50.968;3.134;2022-08-04T09:43:04;2.47;;;2.28;;
18104;SDS011;9179;50.968;3.134;2022-08-04T09:45:42;3.65;;;2.38;;
18104;SDS011;9179;50.968;3.134;2022-08-04T09:48:16;4.20;;;2.75;;
18104;SDS011;9179;50.968;3.134;2022-08-04T09:50:52;2.25;;;2.05;;
18104;SDS011;9179;50.968;3.134;2022-08-04T09:53:29;3.85;;;2.53;;
18104;SDS011;9179;50.968;3.134;2022-08-04T09:56:07;3.30;;;3.00;;
18104;SDS011;9179;50.968;3.134;2022-08-04T09:58:43;2.33;;;2.10;;
18104;SDS011;9179;50.968;3.134;2022-08-04T10:01:16;4.95;;;3.72;;
18104;SDS011;9179;50.968;3.134;2022-08-04T10:03:47;4.22;;;3.13;;
18104;SDS011;9179;50.968;3.134;2022-08-04T10:06:22;3.10;;;2.83;;
18104;SDS011;9179;50.968;3.134;2022-08-04T10:09:07;2.67;;;2.47;;
18104;SDS011;9179;50.968;3.134;2022-08-04T10:11:52;4.00;;;2.50;;
18104;SDS011;9179;50.968;3.134;2022-08-04T10:14:36;3.42;;;3.13;;
18104;SDS011;9179;50.968;3.134;2022-08-04T10:17:15;4.63;;;2.63;;
18104;SDS011;9179;50.968;3.134;2022-08-04T10:19:52;2.88;;;2.60;;
18104;SDS011;9179;50.968;3.134;2022-08-04T10:22:30;4.10;;;2.90;;
18104;SDS011;9179;50.968;3.134;2022-08-04T10:25:04;3.72;;;3.25;;
18104;SDS011;9179;50.968;3.134;2022-08-04T10:27:45;3.28;;;2.97;;
18104;SDS011;9179;50.968;3.134;2022-08-04T10:30:15;4.20;;;3.53;;
18104;SDS011;9179;50.968;3.134;2022-08-04T10:32:44;2.53;;;2.42;;
18104;SDS011;9179;50.968;3.134;2022-08-04T10:35:18;3.55;;;2.60;;
18104;SDS011;9179;50.968;3.134;2022-08-04T10:37:49;4.70;;;2.80;;
18104;SDS011;9179;50.968;3.134;2022-08-04T10:40:27;3.15;;;2.95;;
18104;SDS011;9179;50.968;3.134;2022-08-04T10:43:21;3.20;;;2.90;;
18104;SDS011;9179;50.968;3.134;2022-08-04T10:45:58;4.28;;;2.97;;
18104;SDS011;9179;50.968;3.134;2022-08-04T10:48:33;5.68;;;3.08;;
18104;SDS011;9179;50.968;3.134;2022-08-04T10:51:08;4.00;;;3.20;;
18104;SDS011;9179;50.968;3.134;2022-08-04T10:53:44;4.20;;;2.80;;
18104;SDS011;9179;50.968;3.134;2022-08-04T10:56:16;4.00;;;3.67;;
18104;SDS011;9179;50.968;3.134;2022-08-04T10:58:52;4.32;;;3.33;;
18104;SDS011;9179;50.968;3.134;2022-08-04T11:01:24;4.22;;;2.92;;
18104;SDS011;9179;50.968;3.134;2022-08-04T11:03:57;3.92;;;3.25;;
18104;SDS011;9179;50.968;3.134;2022-08-04T11:06:29;2.80;;;2.45;;
18104;SDS011;9179;50.968;3.134;2022-08-04T11:08:59;3.00;;;2.33;;
18104;SDS011;9179;50.968;3.134;2022-08-04T11:11:29;2.58;;;2.20;;
18104;SDS011;9179;50.968;3.134;2022-08-04T11:14:03;3.80;;;2.60;;
18104;SDS011;9179;50.968;3.134;2022-08-04T11:16:35;3.20;;;2.90;;
18104;SDS011;9179;50.968;3.134;2022-08-04T11:19:11;3.90;;;2.53;;
18104;SDS011;9179;50.968;3.134;2022-08-04T11:21:52;2.88;;;2.42;;
18104;SDS011;9179;50.968;3.134;2022-08-04T11:24:31;5.88;;;2.50;;
18104;SDS011;9179;50.968;3.134;2022-08-04T11:27:03;5.43;;;3.42;;
18104;SDS011;9179;50.968;3.134;2022-08-04T11:29:39;4.47;;;3.00;;
18104;SDS011;9179;50.968;3.134;2022-08-04T11:32:12;2.17;;;2.00;;
18104;SDS011;9179;50.968;3.134;2022-08-04T11:34:46;2.25;;;2.05;;
18104;SDS011;9179;50.968;3.134;2022-08-04T11:37:16;2.72;;;2.53;;
18104;SDS011;9179;50.968;3.134;2022-08-04T11:39:49;2.72;;;2.50;;
18104;SDS011;9179;50.968;3.134;2022-08-04T11:42:18;3.65;;;2.35;;
18104;SDS011;9179;50.968;3.134;2022-08-04T11:44:49;2.72;;;2.53;;
18104;SDS011;9179;50.968;3.134;2022-08-04T11:47:24;5.97;;;2.85;;
18104;SDS011;9179;50.968;3.134;2022-08-04T11:49:57;2.60;;;2.40;;
18104;SDS011;9179;50.968;3.134;2022-08-04T11:52:29;2.53;;;2.22;;
18104;SDS011;9179;50.968;3.134;2022-08-04T11:55:01;3.08;;;2.88;;
18104;SDS011;9179;50.968;3.134;2022-08-04T11:57:30;2.75;;;2.35;;
18104;SDS011;9179;50.968;3.134;2022-08-04T11:59:59;2.95;;;2.38;;
18104;SDS011;9179;50.968;3.134;2022-08-04T12:05:20;2.78;;;2.05;;
18104;SDS011;9179;50.968;3.134;2022-08-04T12:07:54;2.83;;;2.45;;
18104;SDS011;9179;50.968;3.134;2022-08-04T12:10:35;2.58;;;2.38;;
18104;SDS011;9179;50.968;3.134;2022-08-04T12:13:09;3.05;;;2.75;;
18104;SDS011;9179;50.968;3.134;2022-08-04T12:15:49;4.03;;;3.63;;
18104;SDS011;9179;50.968;3.134;2022-08-04T12:18:23;3.53;;;2.60;;
18104;SDS011;9179;50.968;3.134;2022-08-04T12:20:56;4.13;;;3.10;;
18104;SDS011;9179;50.968;3.134;2022-08-04T12:23:28;3.65;;;3.35;;
18104;SDS011;9179;50.968;3.134;2022-08-04T12:25:59;3.63;;;3.20;;
18104;SDS011;9179;50.968;3.134;2022-08-04T12:28:31;5.32;;;3.80;;
18104;SDS011;9179;50.968;3.134;2022-08-04T12:31:04;8.10;;;3.58;;
18104;SDS011;9179;50.968;3.134;2022-08-04T12:33:37;4.90;;;3.40;;
18104;SDS011;9179;50.968;3.134;2022-08-04T12:36:12;3.83;;;3.00;;
18104;SDS011;9179;50.968;3.134;2022-08-04T12:38:47;5.35;;;2.72;;
18104;SDS011;9179;50.968;3.134;2022-08-04T12:41:20;3.92;;;2.63;;
18104;SDS011;9179;50.968;3.134;2022-08-04T12:43:51;4.28;;;3.20;;
18104;SDS011;9179;50.968;3.134;2022-08-04T12:46:21;6.05;;;3.70;;
18104;SDS011;9179;50.968;3.134;2022-08-04T12:48:50;3.88;;;2.60;;
18104;SDS011;9179;50.968;3.134;2022-08-04T12:51:18;4.15;;;3.10;;
18104;SDS011;9179;50.968;3.134;2022-08-04T12:53:47;6.03;;;3.22;;
18104;SDS011;9179;50.968;3.134;2022-08-04T12:56:16;4.85;;;3.35;;
18104;SDS011;9179;50.968;3.134;2022-08-04T12:58:51;4.88;;;3.10;;
18104;SDS011;9179;50.968;3.134;2022-08-04T13:01:22;4.20;;;2.88;;
18104;SDS011;9179;50.968;3.134;2022-08-04T13:03:51;5.85;;;4.45;;
18104;SDS011;9179;50.968;3.134;2022-08-04T13:06:23;3.58;;;2.90;;
18104;SDS011;9179;50.968;3.134;2022-08-04T13:08:52;5.57;;;3.85;;
18104;SDS011;9179;50.968;3.134;2022-08-04T13:11:20;4.13;;;3.05;;
18104;SDS011;9179;50.968;3.134;2022-08-04T13:13:50;3.28;;;2.97;;
18104;SDS011;9179;50.968;3.134;2022-08-04T13:16:28;3.78;;;3.13;;
18104;SDS011;9179;50.968;3.134;2022-08-04T13:18:56;4.00;;;3.22;;
18104;SDS011;9179;50.968;3.134;2022-08-04T13:21:25;4.47;;;3.17;;
18104;SDS011;9179;50.968;3.134;2022-08-04T13:23:55;3.50;;;3.20;;
18104;SDS011;9179;50.968;3.134;2022-08-04T13:26:26;4.65;;;2.80;;
18104;SDS011;9179;50.968;3.134;2022-08-04T13:28:57;4.55;;;3.30;;
18104;SDS011;9179;50.968;3.134;2022-08-04T13:31:28;4.47;;;3.30;;
18104;SDS011;9179;50.968;3.134;2022-08-04T13:34:01;3.67;;;2.97;;
18104;SDS011;9179;50.968;3.134;2022-08-04T13:36:33;4.28;;;3.85;;
18104;SDS011;9179;50.968;3.134;2022-08-04T13:39:02;4.55;;;3.25;;
18104;SDS011;9179;50.968;3.134;2022-08-04T13:41:32;3.10;;;2.75;;
18104;SDS011;9179;50.968;3.134;2022-08-04T13:44:00;4.32;;;3.72;;
18104;SDS011;9179;50.968;3.134;2022-08-04T13:46:36;5.72;;;3.67;;
18104;SDS011;9179;50.968;3.134;2022-08-04T13:49:06;4.93;;;4.15;;
18104;SDS011;9179;50.968;3.134;2022-08-04T13:51:35;4.75;;;4.28;;
18104;SDS011;9179;50.968;3.134;2022-08-04T13:54:04;8.38;;;4.68;;
18104;SDS011;9179;50.968;3.134;2022-08-04T13:56:33;7.65;;;4.40;;
18104;SDS011;9179;50.968;3.134;2022-08-04T13:59:03;4.90;;;3.60;;
18104;SDS011;9179;50.968;3.134;2022-08-04T14:01:32;6.57;;;4.00;;
18104;SDS011;9179;50.968;3.134;2022-08-04T14:04:05;6.88;;;3.83;;
18104;SDS011;9179;50.968;3.134;2022-08-04T14:06:43;3.97;;;3.67;;
18104;SDS011;9179;50.968;3.134;2022-08-04T14:09:14;3.88;;;3.58;;
18104;SDS011;9179;50.968;3.134;2022-08-04T14:11:43;5.65;;;4.10;;
18104;SDS011;9179;50.968;3.134;2022-08-04T14:14:12;3.65;;;3.00;;
18104;SDS011;9179;50.968;3.134;2022-08-04T14:16:54;3.85;;;3.53;;
18104;SDS011;9179;50.968;3.134;2022-08-04T14:19:22;4.53;;;4.05;;
18104;SDS011;9179;50.968;3.134;2022-08-04T14:21:49;5.40;;;3.70;;
18104;SDS011;9179;50.968;3.134;2022-08-04T14:24:21;4.53;;;3.75;;
18104;SDS011;9179;50.968;3.134;2022-08-04T14:26:49;3.92;;;2.65;;
18104;SDS011;9179;50.968;3.134;2022-08-04T14:29:16;3.83;;;3.42;;
18104;SDS011;9179;50.968;3.134;2022-08-04T14:31:46;3.60;;;3.30;;
18104;SDS011;9179;50.968;3.134;2022-08-04T14:34:25;2.95;;;2.30;;
18104;SDS011;9179;50.968;3.134;2022-08-04T14:36:52;3.00;;;2.60;;
18104;SDS011;9179;50.968;3.134;2022-08-04T14:39:35;4.35;;;2.67;;
18104;SDS011;9179;50.968;3.134;2022-08-04T14:42:03;4.03;;;2.95;;
18104;SDS011;9179;50.968;3.134;2022-08-04T14:44:31;4.05;;;2.80;;
18104;SDS011;9179;50.968;3.134;2022-08-04T14:47:17;3.45;;;2.80;;
18104;SDS011;9179;50.968;3.134;2022-08-04T14:49:53;4.15;;;3.13;;
18104;SDS011;9179;50.968;3.134;2022-08-04T14:52:23;4.95;;;3.65;;
18104;SDS011;9179;50.968;3.134;2022-08-04T14:54:51;4.97;;;3.83;;
18104;SDS011;9179;50.968;3.134;2022-08-04T14:57:18;4.22;;;3.88;;
18104;SDS011;9179;50.968;3.134;2022-08-04T14:59:45;4.63;;;3.53;;
18104;SDS011;9179;50.968;3.134;2022-08-04T15:02:14;3.33;;;3.13;;
18104;SDS011;9179;50.968;3.134;2022-08-04T15:04:42;4.95;;;3.30;;
18104;SDS011;9179;50.968;3.134;2022-08-04T15:07:12;4.95;;;3.13;;
18104;SDS011;9179;50.968;3.134;2022-08-04T15:09:40;3.75;;;3.05;;
18104;SDS011;9179;50.968;3.134;2022-08-04T15:12:08;3.47;;;3.10;;
18104;SDS011;9179;50.968;3.134;2022-08-04T15:14:36;3.60;;;2.78;;
18104;SDS011;9179;50.968;3.134;2022-08-04T15:17:03;3.72;;;3.05;;
18104;SDS011;9179;50.968;3.134;2022-08-04T15:19:30;3.60;;;3.08;;
18104;SDS011;9179;50.968;3.134;2022-08-04T15:21:57;3.22;;;2.90;;
18104;SDS011;9179;50.968;3.134;2022-08-04T15:24:26;4.57;;;3.38;;
18104;SDS011;9179;50.968;3.134;2022-08-04T15:26:53;4.22;;;2.95;;
18104;SDS011;9179;50.968;3.134;2022-08-04T15:29:26;4.10;;;2.78;;
18104;SDS011;9179;50.968;3.134;2022-08-04T15:31:57;5.00;;;2.95;;
18104;SDS011;9179;50.968;3.134;2022-08-04T15:34:42;3.05;;;2.83;;
18104;SDS011;9179;50.968;3.134;2022-08-04T15:37:09;2.97;;;2.45;;
18104;SDS011;9179;50.968;3.134;2022-08-04T15:39:44;5.15;;;2.55;;
18104;SDS011;9179;50.968;3.134;2022-08-04T15:42:17;6.88;;;3.53;;
18104;SDS011;9179;50.968;3.134;2022-08-04T15:45:03;3.92;;;2.88;;
18104;SDS011;9179;50.968;3.134;2022-08-04T15:56:48;3.05;;;2.85;;
18104;SDS011;9179;50.968;3.134;2022-08-04T15:59:53;4.78;;;3.20;;
18104;SDS011;9179;50.968;3.134;2022-08-04T16:05:30;3.78;;;2.78;;
18104;SDS011;9179;50.968;3.134;2022-08-04T16:08:08;3.35;;;2.97;;
18104;SDS011;9179;50.968;3.134;2022-08-04T16:10:40;6.28;;;3.47;;
18104;SDS011;9179;50.968;3.134;2022-08-04T16:13:10;4.72;;;3.40;;
18104;SDS011;9179;50.968;3.134;2022-08-04T16:15:39;4.57;;;3.28;;
18104;SDS011;9179;50.968;3.134;2022-08-04T16:18:11;4.18;;;3.03;;
18104;SDS011;9179;50.968;3.134;2022-08-04T16:20:44;3.92;;;2.92;;
18104;SDS011;9179;50.968;3.134;2022-08-04T16:23:19;3.28;;;2.90;;
18104;SDS011;9179;50.968;3.134;2022-08-04T16:26:05;3.55;;;3.00;;
18104;SDS011;9179;50.968;3.134;2022-08-04T16:28:37;3.83;;;2.85;;
18104;SDS011;9179;50.968;3.134;2022-08-04T16:31:07;2.70;;;2.40;;
18104;SDS011;9179;50.968;3.134;2022-08-04T16:33:35;4.05;;;3.45;;
18104;SDS011;9179;50.968;3.134;2022-08-04T16:36:04;3.85;;;2.75;;
18104;SDS011;9179;50.968;3.134;2022-08-04T16:41:38;4.47;;;2.75;;
18104;SDS011;9179;50.968;3.134;2022-08-04T16:44:28;5.47;;;2.58;;
18104;SDS011;9179;50.968;3.134;2022-08-04T16:46:56;4.57;;;2.72;;
18104;SDS011;9179;50.968;3.134;2022-08-04T16:49:24;3.97;;;2.10;;
18104;SDS011;9179;50.968;3.134;2022-08-04T16:51:52;2.85;;;2.28;;
18104;SDS011;9179;50.968;3.134;2022-08-04T16:54:19;3.15;;;1.92;;
18104;SDS011;9179;50.968;3.134;2022-08-04T16:56:47;4.00;;;2.30;;
18104;SDS011;9179;50.968;3.134;2022-08-04T16:59:14;3.92;;;1.90;;
18104;SDS011;9179;50.968;3.134;2022-08-04T17:01:46;2.85;;;2.13;;
18104;SDS011;9179;50.968;3.134;2022-08-04T17:04:15;2.92;;;2.50;;
18104;SDS011;9179;50.968;3.134;2022-08-04T17:06:42;3.85;;;2.28;;
18104;SDS011;9179;50.968;3.134;2022-08-04T17:09:12;4.10;;;2.03;;
18104;SDS011;9179;50.968;3.134;2022-08-04T17:11:40;2.63;;;2.35;;
18104;SDS011;9179;50.968;3.134;2022-08-04T17:14:08;2.20;;;2.00;;
18104;SDS011;9179;50.968;3.134;2022-08-04T17:16:36;2.38;;;1.95;;
18104;SDS011;9179;50.968;3.134;2022-08-04T17:19:06;2.35;;;2.00;;
18104;SDS011;9179;50.968;3.134;2022-08-04T17:21:34;2.25;;;2.00;;
18104;SDS011;9179;50.968;3.134;2022-08-04T17:24:03;3.47;;;1.92;;
18104;SDS011;9179;50.968;3.134;2022-08-04T17:26:31;3.00;;;1.58;;
18104;SDS011;9179;50.968;3.134;2022-08-04T17:28:59;2.67;;;2.28;;
18104;SDS011;9179;50.968;3.134;2022-08-04T17:31:26;5.40;;;2.33;;
18104;SDS011;9179;50.968;3.134;2022-08-04T17:33:55;2.65;;;2.10;;
18104;SDS011;9179;50.968;3.134;2022-08-04T17:36:26;2.95;;;2.17;;
18104;SDS011;9179;50.968;3.134;2022-08-04T17:38:55;2.55;;;2.00;;
18104;SDS011;9179;50.968;3.134;2022-08-04T17:41:24;3.22;;;2.42;;
18104;SDS011;9179;50.968;3.134;2022-08-04T17:43:54;3.45;;;2.60;;
18104;SDS011;9179;50.968;3.134;2022-08-04T17:46:24;2.58;;;2.38;;
18104;SDS011;9179;50.968;3.134;2022-08-04T17:49:00;2.88;;;2.67;;
18104;SDS011;9179;50.968;3.134;2022-08-04T17:51:43;2.58;;;2.35;;
18104;SDS011;9179;50.968;3.134;2022-08-04T17:54:12;3.03;;;2.20;;
18104;SDS011;9179;50.968;3.134;2022-08-04T17:56:41;2.80;;;2.38;;
18104;SDS011;9179;50.968;3.134;2022-08-04T17:59:14;6.43;;;2.80;;
18104;SDS011;9179;50.968;3.134;2022-08-04T18:01:47;2.75;;;2.20;;
18104;SDS011;9179;50.968;3.134;2022-08-04T18:04:29;2.78;;;2.30;;
18104;SDS011;9179;50.968;3.134;2022-08-04T18:06:59;3.47;;;2.30;;
18104;SDS011;9179;50.968;3.134;2022-08-04T18:09:29;4.60;;;2.53;;
18104;SDS011;9179;50.968;3.134;2022-08-04T18:11:57;4.18;;;2.22;;
18104;SDS011;9179;50.968;3.134;2022-08-04T18:14:25;2.97;;;2.38;;
18104;SDS011;9179;50.968;3.134;2022-08-04T18:16:55;3.50;;;2.60;;
18104;SDS011;9179;50.968;3.134;2022-08-04T18:19:22;2.95;;;2.28;;
18104;SDS011;9179;50.968;3.134;2022-08-04T18:21:49;4.07;;;1.98;;
18104;SDS011;9179;50.968;3.134;2022-08-04T18:24:17;2.10;;;1.88;;
18104;SDS011;9179;50.968;3.134;2022-08-04T18:26:44;2.90;;;2.55;;
18104;SDS011;9179;50.968;3.134;2022-08-04T18:29:11;3.40;;;2.00;;
18104;SDS011;9179;50.968;3.134;2022-08-04T18:31:38;4.45;;;2.42;;
18104;SDS011;9179;50.968;3.134;2022-08-04T18:34:05;4.35;;;3.28;;
18104;SDS011;9179;50.968;3.134;2022-08-04T18:36:33;4.10;;;3.45;;
18104;SDS011;9179;50.968;3.134;2022-08-04T18:39:02;3.25;;;2.95;;
18104;SDS011;9179;50.968;3.134;2022-08-04T18:41:32;4.90;;;2.70;;
18104;SDS011;9179;50.968;3.134;2022-08-04T18:43:59;3.92;;;2.63;;
18104;SDS011;9179;50.968;3.134;2022-08-04T18:46:27;3.58;;;2.63;;
18104;SDS011;9179;50.968;3.134;2022-08-04T18:48:54;4.05;;;3.08;;
18104;SDS011;9179;50.968;3.134;2022-08-04T18:51:21;3.63;;;2.50;;
18104;SDS011;9179;50.968;3.134;2022-08-04T18:53:48;4.50;;;3.42;;
18104;SDS011;9179;50.968;3.134;2022-08-04T18:56:15;3.25;;;2.95;;
18104;SDS011;9179;50.968;3.134;2022-08-04T18:58:43;3.42;;;2.45;;
18104;SDS011;9179;50.968;3.134;2022-08-04T19:01:10;4.88;;;3.20;;
18104;SDS011;9179;50.968;3.134;2022-08-04T19:03:38;4.05;;;2.95;;
18104;SDS011;9179;50.968;3.134;2022-08-04T19:06:05;3.63;;;3.10;;
18104;SDS011;9179;50.968;3.134;2022-08-04T19:08:33;2.95;;;2.33;;
18104;SDS011;9179;50.968;3.134;2022-08-04T19:11:00;3.08;;;2.88;;
18104;SDS011;9179;50.968;3.134;2022-08-04T19:13:27;3.33;;;2.90;;
18104;SDS011;9179;50.968;3.134;2022-08-04T19:15:56;4.97;;;2.75;;
18104;SDS011;9179;50.968;3.134;2022-08-04T19:18:23;3.10;;;2.80;;
18104;SDS011;9179;50.968;3.134;2022-08-04T19:20:50;4.45;;;3.30;;
18104;SDS011;9179;50.968;3.134;2022-08-04T19:23:18;3.03;;;2.80;;
18104;SDS011;9179;50.968;3.134;2022-08-04T19:25:46;3.08;;;2.85;;
18104;SDS011;9179;50.968;3.134;2022-08-04T19:28:13;4.05;;;2.97;;
18104;SDS011;9179;50.968;3.134;2022-08-04T19:30:39;3.22;;;2.72;;
18104;SDS011;9179;50.968;3.134;2022-08-04T19:33:08;5.70;;;2.47;;
18104;SDS011;9179;50.968;3.134;2022-08-04T19:35:35;4.70;;;2.83;;
18104;SDS011;9179;50.968;3.134;2022-08-04T19:38:05;4.32;;;2.85;;
18104;SDS011;9179;50.968;3.134;2022-08-04T19:40:32;2.50;;;2.30;;
18104;SDS011;9179;50.968;3.134;2022-08-04T19:42:59;4.57;;;2.70;;
18104;SDS011;9179;50.968;3.134;2022-08-04T19:45:26;5.57;;;3.03;;
18104;SDS011;9179;50.968;3.134;2022-08-04T19:47:53;3.13;;;2.80;;
18104;SDS011;9179;50.968;3.134;2022-08-04T19:50:21;4.50;;;2.58;;
18104;SDS011;9179;50.968;3.134;2022-08-04T19:52:48;4.32;;;2.75;;
18104;SDS011;9179;50.968;3.134;2022-08-04T19:55:15;2.45;;;2.20;;
18104;SDS011;9179;50.968;3.134;2022-08-04T19:57:42;6.03;;;2.47;;
18104;SDS011;9179;50.968;3.134;2022-08-04T20:00:09;4.22;;;2.70;;
18104;SDS011;9179;50.968;3.134;2022-08-04T20:02:38;3.88;;;2.63;;
18104;SDS011;9179;50.968;3.134;2022-08-04T20:05:05;4.22;;;3.38;;
18104;SDS011;9179;50.968;3.134;2022-08-04T20:07:34;3.58;;;3.25;;
18104;SDS011;9179;50.968;3.134;2022-08-04T20:10:01;4.25;;;2.97;;
18104;SDS011;9179;50.968;3.134;2022-08-04T20:12:29;3.75;;;3.03;;
18104;SDS011;9179;50.968;3.134;2022-08-04T20:14:56;3.88;;;3.08;;
18104;SDS011;9179;50.968;3.134;2022-08-04T20:17:23;5.03;;;2.85;;
18104;SDS011;9179;50.968;3.134;2022-08-04T20:19:50;3.47;;;2.50;;
18104;SDS011;9179;50.968;3.134;2022-08-04T20:22:17;4.45;;;2.95;;
18104;SDS011;9179;50.968;3.134;2022-08-04T20:24:47;4.68;;;2.58;;
18104;SDS011;9179;50.968;3.134;2022-08-04T20:27:15;4.32;;;2.58;;
18104;SDS011;9179;50.968;3.134;2022-08-04T20:29:44;3.67;;;2.78;;
18104;SDS011;9179;50.968;3.134;2022-08-04T20:32:13;2.95;;;2.65;;
18104;SDS011;9179;50.968;3.134;2022-08-04T20:34:40;4.45;;;3.45;;
18104;SDS011;9179;50.968;3.134;2022-08-04T20:37:07;4.38;;;2.97;;
18104;SDS011;9179;50.968;3.134;2022-08-04T20:39:34;4.82;;;2.97;;
18104;SDS011;9179;50.968;3.134;2022-08-04T20:42:02;4.10;;;2.90;;
18104;SDS011;9179;50.968;3.134;2022-08-04T20:44:29;4.45;;;3.65;;
18104;SDS011;9179;50.968;3.134;2022-08-04T20:46:56;4.75;;;3.47;;
18104;SDS011;9179;50.968;3.134;2022-08-04T20:49:23;3.92;;;3.45;;
18104;SDS011;9179;50.968;3.134;2022-08-04T20:51:49;3.30;;;3.00;;
18104;SDS011;9179;50.968;3.134;2022-08-04T20:54:16;3.58;;;3.25;;
18104;SDS011;9179;50.968;3.134;2022-08-04T20:56:43;4.95;;;3.30;;
18104;SDS011;9179;50.968;3.134;2022-08-04T20:59:11;3.10;;;2.85;;
18104;SDS011;9179;50.968;3.134;2022-08-04T21:01:38;4.82;;;3.92;;
18104;SDS011;9179;50.968;3.134;2022-08-04T21:04:05;4.72;;;3.35;;
18104;SDS011;9179;50.968;3.134;2022-08-04T21:06:50;5.78;;;3.88;;
18104;SDS011;9179;50.968;3.134;2022-08-04T21:09:17;3.85;;;3.45;;
18104;SDS011;9179;50.968;3.134;2022-08-04T21:11:43;6.35;;;3.42;;
18104;SDS011;9179;50.968;3.134;2022-08-04T21:14:12;4.53;;;3.60;;
18104;SDS011;9179;50.968;3.134;2022-08-04T21:16:38;6.43;;;3.80;;
18104;SDS011;9179;50.968;3.134;2022-08-04T21:19:05;5.55;;;3.45;;
18104;SDS011;9179;50.968;3.134;2022-08-04T21:21:32;4.97;;;3.55;;
18104;SDS011;9179;50.968;3.134;2022-08-04T21:23:59;4.40;;;3.40;;
18104;SDS011;9179;50.968;3.134;2022-08-04T21:26:26;3.55;;;3.25;;
18104;SDS011;9179;50.968;3.134;2022-08-04T21:28:53;4.85;;;3.58;;
18104;SDS011;9179;50.968;3.134;2022-08-04T21:31:21;6.10;;;4.20;;
18104;SDS011;9179;50.968;3.134;2022-08-04T21:33:48;7.40;;;4.03;;
18104;SDS011;9179;50.968;3.134;2022-08-04T21:36:15;3.97;;;3.22;;
18104;SDS011;9179;50.968;3.134;2022-08-04T21:38:42;4.00;;;2.65;;
18104;SDS011;9179;50.968;3.134;2022-08-04T21:41:09;4.82;;;2.97;;
18104;SDS011;9179;50.968;3.134;2022-08-04T21:43:35;2.70;;;2.15;;
18104;SDS011;9179;50.968;3.134;2022-08-04T21:46:02;6.07;;;2.55;;
18104;SDS011;9179;50.968;3.134;2022-08-04T21:48:31;4.32;;;2.33;;
18104;SDS011;9179;50.968;3.134;2022-08-04T21:51:10;3.65;;;2.45;;
18104;SDS011;9179;50.968;3.134;2022-08-04T21:53:38;5.28;;;2.40;;
18104;SDS011;9179;50.968;3.134;2022-08-04T21:56:05;5.10;;;2.55;;
18104;SDS011;9179;50.968;3.134;2022-08-04T21:58:33;2.72;;;2.33;;
18104;SDS011;9179;50.968;3.134;2022-08-04T22:01:00;4.22;;;2.30;;
18104;SDS011;9179;50.968;3.134;2022-08-04T22:03:27;7.07;;;3.05;;
18104;SDS011;9179;50.968;3.134;2022-08-04T22:05:55;4.10;;;2.38;;
18104;SDS011;9179;50.968;3.134;2022-08-04T22:08:22;3.78;;;2.90;;
18104;SDS011;9179;50.968;3.134;2022-08-04T22:10:49;4.53;;;2.70;;
18104;SDS011;9179;50.968;3.134;2022-08-04T22:13:16;3.78;;;2.60;;
18104;SDS011;9179;50.968;3.134;2022-08-04T22:15:43;7.18;;;3.08;;
18104;SDS011;9179;50.968;3.134;2022-08-04T22:18:10;5.47;;;2.80;;
18104;SDS011;9179;50.968;3.134;2022-08-04T22:20:37;3.83;;;2.50;;
18104;SDS011;9179;50.968;3.134;2022-08-04T22:23:05;5.50;;;2.85;;
18104;SDS011;9179;50.968;3.134;2022-08-04T22:25:32;2.50;;;2.25;;
18104;SDS011;9179;50.968;3.134;2022-08-04T22:27:59;5.93;;;2.90;;
18104;SDS011;9179;50.968;3.134;2022-08-04T22:30:27;3.42;;;2.70;;
18104;SDS011;9179;50.968;3.134;2022-08-04T22:32:55;7.10;;;2.53;;
18104;SDS011;9179;50.968;3.134;2022-08-04T22:35:22;3.70;;;2.80;;
18104;SDS011;9179;50.968;3.134;2022-08-04T22:37:49;6.05;;;2.60;;
18104;SDS011;9179;50.968;3.134;2022-08-04T22:40:17;5.68;;;2.47;;
18104;SDS011;9179;50.968;3.134;2022-08-04T22:42:44;2.58;;;2.28;;
18104;SDS011;9179;50.968;3.134;2022-08-04T22:45:11;4.07;;;2.85;;
18104;SDS011;9179;50.968;3.134;2022-08-04T22:47:38;4.53;;;3.15;;
18104;SDS011;9179;50.968;3.134;2022-08-04T22:50:05;5.15;;;2.55;;
18104;SDS011;9179;50.968;3.134;2022-08-04T22:52:33;4.50;;;3.35;;
18104;SDS011;9179;50.968;3.134;2022-08-04T22:55:00;7.13;;;3.40;;
18104;SDS011;9179;50.968;3.134;2022-08-04T22:57:28;5.63;;;3.17;;
18104;SDS011;9179;50.968;3.134;2022-08-04T22:59:55;5.05;;;3.67;;
18104;SDS011;9179;50.968;3.134;2022-08-04T23:02:22;8.27;;;3.22;;
18104;SDS011;9179;50.968;3.134;2022-08-04T23:04:49;6.82;;;3.97;;
18104;SDS011;9179;50.968;3.134;2022-08-04T23:07:16;6.05;;;3.60;;
18104;SDS011;9179;50.968;3.134;2022-08-04T23:09:42;5.07;;;3.90;;
18104;SDS011;9179;50.968;3.134;2022-08-04T23:12:09;4.55;;;3.55;;
18104;SDS011;9179;50.968;3.134;2022-08-04T23:14:41;5.05;;;3.72;;
18104;SDS011;9179;50.968;3.134;2022-08-04T23:17:09;6.40;;;3.50;;
18104;SDS011;9179;50.968;3.134;2022-08-04T23:19:36;5.25;;;3.90;;
18104;SDS011;9179;50.968;3.134;2022-08-04T23:22:03;4.65;;;3.67;;
18104;SDS011;9179;50.968;3.134;2022-08-04T23:24:30;4.70;;;4.18;;
18104;SDS011;9179;50.968;3.134;2022-08-04T23:26:56;3.92;;;3.58;;
18104;SDS011;9179;50.968;3.134;2022-08-04T23:29:24;4.50;;;3.40;;
18104;SDS011;9179;50.968;3.134;2022-08-04T23:31:52;4.78;;;3.72;;
18104;SDS011;9179;50.968;3.134;2022-08-04T23:34:19;5.57;;;4.13;;
18104;SDS011;9179;50.968;3.134;2022-08-04T23:36:47;6.82;;;3.92;;
18104;SDS011;9179;50.968;3.134;2022-08-04T23:39:14;8.30;;;4.20;;
18104;SDS011;9179;50.968;3.134;2022-08-04T23:41:41;8.43;;;4.07;;
18104;SDS011;9179;50.968;3.134;2022-08-04T23:44:08;6.15;;;3.67;;
18104;SDS011;9179;50.968;3.134;2022-08-04T23:46:34;4.45;;;3.92;;
18104;SDS011;9179;50.968;3.134;2022-08-04T23:49:04;6.20;;;4.28;;
18104;SDS011;9179;50.968;3.134;2022-08-04T23:51:31;6.50;;;4.30;;
18104;SDS011;9179;50.968;3.134;2022-08-04T23:53:58;5.60;;;4.30;;
18104;SDS011;9179;50.968;3.134;2022-08-04T23:56:25;4.82;;;3.72;;
18104;SDS011;9179;50.968;3.134;2022-08-04T23:58:52;7.07;;;4.18;;
